sensor_id;sensor_type;location;lat;lon;timestamp;P1;durP1;ratioP1;P2;durP2;ratioP2
71265;SDS011;59030;52.052;8.550;2023-06-22T00:00:52;4.57;;;4.17;;
71265;SDS011;59030;52.052;8.550;2023-06-22T00:03:21;4.47;;;4.07;;
71265;SDS011;59030;52.052;8.550;2023-06-22T00:05:48;6.77;;;4.70;;
71265;SDS011;59030;52.052;8.550;2023-06-22T00:08:16;4.80;;;4.30;;
71265;SDS011;59030;52.052;8.550;2023-06-22T00:10:43;4.40;;;4.00;;
71265;SDS011;59030;52.052;8.550;2023-06-22T00:13:11;5.40;;;4.37;;
71265;SDS011;59030;52.052;8.550;2023-06-22T00:15:39;5.37;;;4.87;;
71265;SDS011;59030;52.052;8.550;2023-06-22T00:18:07;5.80;;;4.73;;
71265;SDS011;59030;52.052;8.550;2023-06-22T00:20:35;5.07;;;4.57;;
71265;SDS011;59030;52.052;8.550;2023-06-22T00:23:03;5.83;;;4.77;;
71265;SDS011;59030;52.052;8.550;2023-06-22T00:25:33;5.47;;;4.97;;
71265;SDS011;59030;52.052;8.550;2023-06-22T00:28:02;5.47;;;4.60;;
71265;SDS011;59030;52.052;8.550;2023-06-22T00:30:29;5.17;;;4.40;;
71265;SDS011;59030;52.052;8.550;2023-06-22T00:32:57;5.30;;;4.80;;
71265;SDS011;59030;52.052;8.550;2023-06-22T00:35:24;5.67;;;4.70;;
71265;SDS011;59030;52.052;8.550;2023-06-22T00:37:54;6.43;;;4.80;;
71265;SDS011;59030;52.052;8.550;2023-06-22T00:40:24;5.03;;;4.47;;
71265;SDS011;59030;52.052;8.550;2023-06-22T00:42:51;5.83;;;4.17;;
71265;SDS011;59030;52.052;8.550;2023-06-22T00:45:19;5.80;;;4.50;;
71265;SDS011;59030;52.052;8.550;2023-06-22T00:47:46;5.63;;;4.60;;
71265;SDS011;59030;52.052;8.550;2023-06-22T00:50:15;4.53;;;4.10;;
71265;SDS011;59030;52.052;8.550;2023-06-22T00:52:44;5.57;;;4.80;;
71265;SDS011;59030;52.052;8.550;2023-06-22T00:55:14;5.33;;;4.70;;
71265;SDS011;59030;52.052;8.550;2023-06-22T00:57:44;8.03;;;4.50;;
71265;SDS011;59030;52.052;8.550;2023-06-22T01:00:12;7.20;;;5.13;;
71265;SDS011;59030;52.052;8.550;2023-06-22T01:02:40;8.00;;;4.97;;
71265;SDS011;59030;52.052;8.550;2023-06-22T01:05:08;5.17;;;4.47;;
71265;SDS011;59030;52.052;8.550;2023-06-22T01:07:35;6.27;;;4.70;;
71265;SDS011;59030;52.052;8.550;2023-06-22T01:10:05;7.53;;;5.17;;
71265;SDS011;59030;52.052;8.550;2023-06-22T01:12:33;5.93;;;5.10;;
71265;SDS011;59030;52.052;8.550;2023-06-22T01:15:04;7.10;;;5.03;;
71265;SDS011;59030;52.052;8.550;2023-06-22T01:17:31;5.40;;;4.90;;
71265;SDS011;59030;52.052;8.550;2023-06-22T01:19:59;6.90;;;5.07;;
71265;SDS011;59030;52.052;8.550;2023-06-22T01:22:28;6.93;;;5.30;;
71265;SDS011;59030;52.052;8.550;2023-06-22T01:25:00;7.73;;;5.50;;
71265;SDS011;59030;52.052;8.550;2023-06-22T01:27:32;7.93;;;5.57;;
71265;SDS011;59030;52.052;8.550;2023-06-22T01:30:02;6.13;;;4.90;;
71265;SDS011;59030;52.052;8.550;2023-06-22T01:32:32;6.93;;;5.13;;
71265;SDS011;59030;52.052;8.550;2023-06-22T01:34:59;7.33;;;5.27;;
71265;SDS011;59030;52.052;8.550;2023-06-22T01:37:27;7.73;;;5.77;;
71265;SDS011;59030;52.052;8.550;2023-06-22T01:39:54;6.30;;;5.70;;
71265;SDS011;59030;52.052;8.550;2023-06-22T01:42:22;9.43;;;5.77;;
71265;SDS011;59030;52.052;8.550;2023-06-22T01:44:50;6.57;;;5.90;;
71265;SDS011;59030;52.052;8.550;2023-06-22T01:47:18;6.57;;;5.87;;
71265;SDS011;59030;52.052;8.550;2023-06-22T01:49:46;6.53;;;5.83;;
71265;SDS011;59030;52.052;8.550;2023-06-22T01:52:14;8.13;;;6.53;;
71265;SDS011;59030;52.052;8.550;2023-06-22T01:54:42;7.20;;;6.10;;
71265;SDS011;59030;52.052;8.550;2023-06-22T01:57:09;7.33;;;6.07;;
71265;SDS011;59030;52.052;8.550;2023-06-22T01:59:37;9.27;;;6.77;;
71265;SDS011;59030;52.052;8.550;2023-06-22T02:02:06;10.50;;;6.80;;
71265;SDS011;59030;52.052;8.550;2023-06-22T02:04:36;7.50;;;6.30;;
71265;SDS011;59030;52.052;8.550;2023-06-22T02:07:05;9.27;;;6.43;;
71265;SDS011;59030;52.052;8.550;2023-06-22T02:09:32;7.80;;;6.63;;
71265;SDS011;59030;52.052;8.550;2023-06-22T02:12:01;7.60;;;6.73;;
71265;SDS011;59030;52.052;8.550;2023-06-22T02:14:29;7.87;;;7.07;;
71265;SDS011;59030;52.052;8.550;2023-06-22T02:16:56;7.77;;;6.97;;
71265;SDS011;59030;52.052;8.550;2023-06-22T02:19:25;8.10;;;7.07;;
71265;SDS011;59030;52.052;8.550;2023-06-22T02:21:53;8.03;;;6.87;;
71265;SDS011;59030;52.052;8.550;2023-06-22T02:24:20;7.63;;;6.83;;
71265;SDS011;59030;52.052;8.550;2023-06-22T02:26:49;8.67;;;7.60;;
71265;SDS011;59030;52.052;8.550;2023-06-22T02:29:16;7.97;;;7.00;;
71265;SDS011;59030;52.052;8.550;2023-06-22T02:31:43;9.67;;;7.20;;
71265;SDS011;59030;52.052;8.550;2023-06-22T02:34:10;9.53;;;7.33;;
71265;SDS011;59030;52.052;8.550;2023-06-22T02:36:39;11.37;;;7.90;;
71265;SDS011;59030;52.052;8.550;2023-06-22T02:39:08;10.07;;;7.83;;
71265;SDS011;59030;52.052;8.550;2023-06-22T02:41:37;8.97;;;7.70;;
71265;SDS011;59030;52.052;8.550;2023-06-22T02:44:04;10.53;;;8.77;;
71265;SDS011;59030;52.052;8.550;2023-06-22T02:46:32;9.97;;;8.10;;
71265;SDS011;59030;52.052;8.550;2023-06-22T02:48:59;9.67;;;8.30;;
71265;SDS011;59030;52.052;8.550;2023-06-22T02:51:28;9.90;;;7.93;;
71265;SDS011;59030;52.052;8.550;2023-06-22T02:53:56;12.07;;;8.23;;
71265;SDS011;59030;52.052;8.550;2023-06-22T02:56:23;10.67;;;7.73;;
71265;SDS011;59030;52.052;8.550;2023-06-22T02:58:51;10.03;;;8.17;;
71265;SDS011;59030;52.052;8.550;2023-06-22T03:01:18;13.57;;;8.77;;
71265;SDS011;59030;52.052;8.550;2023-06-22T03:03:48;11.43;;;8.77;;
71265;SDS011;59030;52.052;8.550;2023-06-22T03:06:15;9.93;;;8.77;;
71265;SDS011;59030;52.052;8.550;2023-06-22T03:08:42;9.73;;;8.60;;
71265;SDS011;59030;52.052;8.550;2023-06-22T03:11:09;10.47;;;9.23;;
71265;SDS011;59030;52.052;8.550;2023-06-22T03:13:37;11.73;;;9.77;;
71265;SDS011;59030;52.052;8.550;2023-06-22T03:16:04;10.30;;;9.20;;
71265;SDS011;59030;52.052;8.550;2023-06-22T03:18:31;11.37;;;9.27;;
71265;SDS011;59030;52.052;8.550;2023-06-22T03:20:59;9.80;;;8.80;;
71265;SDS011;59030;52.052;8.550;2023-06-22T03:23:27;11.77;;;9.10;;
71265;SDS011;59030;52.052;8.550;2023-06-22T03:25:55;11.10;;;9.33;;
71265;SDS011;59030;52.052;8.550;2023-06-22T03:28:22;13.17;;;9.13;;
71265;SDS011;59030;52.052;8.550;2023-06-22T03:30:52;11.37;;;9.43;;
71265;SDS011;59030;52.052;8.550;2023-06-22T03:33:20;13.10;;;9.43;;
71265;SDS011;59030;52.052;8.550;2023-06-22T03:35:48;12.40;;;9.23;;
71265;SDS011;59030;52.052;8.550;2023-06-22T03:38:15;12.77;;;9.13;;
71265;SDS011;59030;52.052;8.550;2023-06-22T03:40:43;10.50;;;8.73;;
71265;SDS011;59030;52.052;8.550;2023-06-22T03:43:10;11.97;;;9.37;;
71265;SDS011;59030;52.052;8.550;2023-06-22T03:45:37;12.80;;;10.13;;
71265;SDS011;59030;52.052;8.550;2023-06-22T03:48:06;12.80;;;9.10;;
71265;SDS011;59030;52.052;8.550;2023-06-22T03:50:33;11.20;;;9.37;;
71265;SDS011;59030;52.052;8.550;2023-06-22T03:53:00;10.63;;;9.40;;
71265;SDS011;59030;52.052;8.550;2023-06-22T03:55:28;10.20;;;9.17;;
71265;SDS011;59030;52.052;8.550;2023-06-22T03:57:56;12.03;;;9.63;;
71265;SDS011;59030;52.052;8.550;2023-06-22T04:00:23;12.43;;;9.97;;
71265;SDS011;59030;52.052;8.550;2023-06-22T04:02:50;12.47;;;9.83;;
71265;SDS011;59030;52.052;8.550;2023-06-22T04:05:17;11.00;;;9.60;;
71265;SDS011;59030;52.052;8.550;2023-06-22T04:07:45;12.10;;;10.33;;
71265;SDS011;59030;52.052;8.550;2023-06-22T04:10:12;12.80;;;10.07;;
71265;SDS011;59030;52.052;8.550;2023-06-22T04:12:39;11.17;;;9.97;;
71265;SDS011;59030;52.052;8.550;2023-06-22T04:15:07;11.17;;;9.60;;
71265;SDS011;59030;52.052;8.550;2023-06-22T04:17:35;11.83;;;10.17;;
71265;SDS011;59030;52.052;8.550;2023-06-22T04:20:02;11.53;;;9.77;;
71265;SDS011;59030;52.052;8.550;2023-06-22T04:22:31;12.83;;;10.13;;
71265;SDS011;59030;52.052;8.550;2023-06-22T04:24:58;12.13;;;10.13;;
71265;SDS011;59030;52.052;8.550;2023-06-22T04:27:25;11.57;;;10.37;;
71265;SDS011;59030;52.052;8.550;2023-06-22T04:29:52;12.47;;;10.00;;
71265;SDS011;59030;52.052;8.550;2023-06-22T04:32:19;12.83;;;9.73;;
71265;SDS011;59030;52.052;8.550;2023-06-22T04:34:47;12.27;;;10.23;;
71265;SDS011;59030;52.052;8.550;2023-06-22T04:37:14;16.97;;;11.07;;
71265;SDS011;59030;52.052;8.550;2023-06-22T04:39:41;12.70;;;10.37;;
71265;SDS011;59030;52.052;8.550;2023-06-22T04:42:09;11.10;;;9.97;;
71265;SDS011;59030;52.052;8.550;2023-06-22T04:44:36;14.13;;;10.37;;
71265;SDS011;59030;52.052;8.550;2023-06-22T04:47:05;13.20;;;10.90;;
71265;SDS011;59030;52.052;8.550;2023-06-22T04:49:34;11.87;;;10.47;;
71265;SDS011;59030;52.052;8.550;2023-06-22T04:52:03;13.03;;;10.93;;
71265;SDS011;59030;52.052;8.550;2023-06-22T04:54:31;13.73;;;11.23;;
71265;SDS011;59030;52.052;8.550;2023-06-22T04:56:59;14.00;;;10.63;;
71265;SDS011;59030;52.052;8.550;2023-06-22T04:59:26;13.80;;;11.13;;
71265;SDS011;59030;52.052;8.550;2023-06-22T05:01:55;14.53;;;10.57;;
71265;SDS011;59030;52.052;8.550;2023-06-22T05:04:23;13.20;;;10.30;;
71265;SDS011;59030;52.052;8.550;2023-06-22T05:06:50;12.30;;;11.00;;
71265;SDS011;59030;52.052;8.550;2023-06-22T05:09:18;11.63;;;10.40;;
71265;SDS011;59030;52.052;8.550;2023-06-22T05:11:45;12.73;;;11.23;;
71265;SDS011;59030;52.052;8.550;2023-06-22T05:14:13;15.00;;;11.20;;
71265;SDS011;59030;52.052;8.550;2023-06-22T05:16:41;12.37;;;11.03;;
71265;SDS011;59030;52.052;8.550;2023-06-22T05:19:09;14.30;;;10.60;;
71265;SDS011;59030;52.052;8.550;2023-06-22T05:21:36;14.87;;;11.43;;
71265;SDS011;59030;52.052;8.550;2023-06-22T05:24:04;15.30;;;11.53;;
71265;SDS011;59030;52.052;8.550;2023-06-22T05:26:33;16.43;;;11.67;;
71265;SDS011;59030;52.052;8.550;2023-06-22T05:29:00;16.50;;;12.27;;
71265;SDS011;59030;52.052;8.550;2023-06-22T05:31:28;16.23;;;12.00;;
71265;SDS011;59030;52.052;8.550;2023-06-22T05:33:57;14.03;;;10.87;;
71265;SDS011;59030;52.052;8.550;2023-06-22T05:36:26;12.43;;;11.13;;
71265;SDS011;59030;52.052;8.550;2023-06-22T05:38:53;12.30;;;11.00;;
71265;SDS011;59030;52.052;8.550;2023-06-22T05:41:20;13.57;;;12.17;;
71265;SDS011;59030;52.052;8.550;2023-06-22T05:43:47;13.67;;;11.63;;
71265;SDS011;59030;52.052;8.550;2023-06-22T05:46:15;15.17;;;12.20;;
71265;SDS011;59030;52.052;8.550;2023-06-22T05:48:43;15.77;;;12.23;;
71265;SDS011;59030;52.052;8.550;2023-06-22T05:51:10;13.67;;;11.67;;
71265;SDS011;59030;52.052;8.550;2023-06-22T05:53:38;13.53;;;11.47;;
71265;SDS011;59030;52.052;8.550;2023-06-22T05:56:05;13.77;;;12.10;;
71265;SDS011;59030;52.052;8.550;2023-06-22T05:58:34;13.37;;;11.57;;
71265;SDS011;59030;52.052;8.550;2023-06-22T06:01:02;13.83;;;11.60;;
71265;SDS011;59030;52.052;8.550;2023-06-22T06:03:29;13.93;;;11.27;;
71265;SDS011;59030;52.052;8.550;2023-06-22T06:05:56;17.07;;;11.93;;
71265;SDS011;59030;52.052;8.550;2023-06-22T06:08:25;12.73;;;10.97;;
71265;SDS011;59030;52.052;8.550;2023-06-22T06:10:52;13.63;;;10.90;;
71265;SDS011;59030;52.052;8.550;2023-06-22T06:13:21;17.07;;;12.20;;
71265;SDS011;59030;52.052;8.550;2023-06-22T06:15:48;15.20;;;12.13;;
71265;SDS011;59030;52.052;8.550;2023-06-22T06:18:17;14.57;;;11.60;;
71265;SDS011;59030;52.052;8.550;2023-06-22T06:20:44;13.83;;;11.93;;
71265;SDS011;59030;52.052;8.550;2023-06-22T06:23:13;14.53;;;11.57;;
71265;SDS011;59030;52.052;8.550;2023-06-22T06:25:40;12.27;;;10.90;;
71265;SDS011;59030;52.052;8.550;2023-06-22T06:28:08;11.57;;;9.43;;
71265;SDS011;59030;52.052;8.550;2023-06-22T06:30:35;12.40;;;10.43;;
71265;SDS011;59030;52.052;8.550;2023-06-22T06:33:03;13.90;;;11.27;;
71265;SDS011;59030;52.052;8.550;2023-06-22T06:35:32;15.43;;;10.20;;
71265;SDS011;59030;52.052;8.550;2023-06-22T06:37:59;15.97;;;10.77;;
71265;SDS011;59030;52.052;8.550;2023-06-22T06:40:27;14.40;;;11.47;;
71265;SDS011;59030;52.052;8.550;2023-06-22T06:42:54;12.50;;;10.70;;
71265;SDS011;59030;52.052;8.550;2023-06-22T06:45:22;16.33;;;10.80;;
71265;SDS011;59030;52.052;8.550;2023-06-22T06:47:50;14.03;;;11.37;;
71265;SDS011;59030;52.052;8.550;2023-06-22T06:50:17;14.17;;;11.17;;
71265;SDS011;59030;52.052;8.550;2023-06-22T06:52:44;14.53;;;11.30;;
71265;SDS011;59030;52.052;8.550;2023-06-22T06:55:12;13.87;;;11.33;;
71265;SDS011;59030;52.052;8.550;2023-06-22T06:57:40;13.30;;;11.23;;
71265;SDS011;59030;52.052;8.550;2023-06-22T07:00:08;11.53;;;10.27;;
71265;SDS011;59030;52.052;8.550;2023-06-22T07:02:38;13.17;;;10.23;;
71265;SDS011;59030;52.052;8.550;2023-06-22T07:05:06;15.53;;;10.63;;
71265;SDS011;59030;52.052;8.550;2023-06-22T07:07:34;13.30;;;10.93;;
71265;SDS011;59030;52.052;8.550;2023-06-22T07:10:01;13.23;;;11.03;;
71265;SDS011;59030;52.052;8.550;2023-06-22T07:12:29;13.00;;;10.53;;
71265;SDS011;59030;52.052;8.550;2023-06-22T07:15:01;12.93;;;11.53;;
71265;SDS011;59030;52.052;8.550;2023-06-22T07:17:29;13.13;;;10.90;;
71265;SDS011;59030;52.052;8.550;2023-06-22T07:19:56;11.63;;;10.43;;
71265;SDS011;59030;52.052;8.550;2023-06-22T07:22:23;12.47;;;10.63;;
71265;SDS011;59030;52.052;8.550;2023-06-22T07:24:51;13.20;;;10.13;;
71265;SDS011;59030;52.052;8.550;2023-06-22T07:27:18;12.87;;;10.70;;
71265;SDS011;59030;52.052;8.550;2023-06-22T07:29:46;14.17;;;11.80;;
71265;SDS011;59030;52.052;8.550;2023-06-22T07:32:13;15.03;;;11.60;;
71265;SDS011;59030;52.052;8.550;2023-06-22T07:34:40;13.90;;;11.83;;
71265;SDS011;59030;52.052;8.550;2023-06-22T07:37:07;13.03;;;11.30;;
71265;SDS011;59030;52.052;8.550;2023-06-22T07:39:35;13.33;;;11.37;;
71265;SDS011;59030;52.052;8.550;2023-06-22T07:42:04;13.47;;;10.30;;
71265;SDS011;59030;52.052;8.550;2023-06-22T07:44:31;13.80;;;11.57;;
71265;SDS011;59030;52.052;8.550;2023-06-22T07:46:58;13.37;;;11.20;;
71265;SDS011;59030;52.052;8.550;2023-06-22T07:49:25;12.60;;;11.23;;
71265;SDS011;59030;52.052;8.550;2023-06-22T07:51:53;15.80;;;11.50;;
71265;SDS011;59030;52.052;8.550;2023-06-22T07:54:20;12.87;;;11.00;;
71265;SDS011;59030;52.052;8.550;2023-06-22T07:56:47;11.40;;;10.17;;
71265;SDS011;59030;52.052;8.550;2023-06-22T07:59:14;15.43;;;11.90;;
71265;SDS011;59030;52.052;8.550;2023-06-22T08:01:41;13.57;;;11.30;;
71265;SDS011;59030;52.052;8.550;2023-06-22T08:04:09;14.93;;;11.00;;
71265;SDS011;59030;52.052;8.550;2023-06-22T08:06:36;14.10;;;10.70;;
71265;SDS011;59030;52.052;8.550;2023-06-22T08:09:03;12.03;;;10.73;;
71265;SDS011;59030;52.052;8.550;2023-06-22T08:11:31;15.10;;;11.20;;
71265;SDS011;59030;52.052;8.550;2023-06-22T08:13:58;12.03;;;10.67;;
71265;SDS011;59030;52.052;8.550;2023-06-22T08:16:25;12.20;;;10.47;;
71265;SDS011;59030;52.052;8.550;2023-06-22T08:18:53;13.10;;;10.10;;
71265;SDS011;59030;52.052;8.550;2023-06-22T08:21:20;12.83;;;10.17;;
71265;SDS011;59030;52.052;8.550;2023-06-22T08:23:48;13.87;;;10.53;;
71265;SDS011;59030;52.052;8.550;2023-06-22T08:26:15;12.13;;;10.80;;
71265;SDS011;59030;52.052;8.550;2023-06-22T08:28:42;13.43;;;10.77;;
71265;SDS011;59030;52.052;8.550;2023-06-22T08:31:10;12.53;;;10.63;;
71265;SDS011;59030;52.052;8.550;2023-06-22T08:33:38;12.13;;;10.83;;
71265;SDS011;59030;52.052;8.550;2023-06-22T08:36:05;12.30;;;10.57;;
71265;SDS011;59030;52.052;8.550;2023-06-22T08:38:34;16.30;;;11.30;;
71265;SDS011;59030;52.052;8.550;2023-06-22T08:41:01;14.27;;;10.37;;
71265;SDS011;59030;52.052;8.550;2023-06-22T08:43:29;12.53;;;11.23;;
71265;SDS011;59030;52.052;8.550;2023-06-22T08:45:56;12.23;;;10.85;;
71265;SDS011;59030;52.052;8.550;2023-06-22T08:48:23;14.40;;;10.83;;
71265;SDS011;59030;52.052;8.550;2023-06-22T08:50:50;13.15;;;10.23;;
71265;SDS011;59030;52.052;8.550;2023-06-22T08:53:18;12.37;;;10.90;;
71265;SDS011;59030;52.052;8.550;2023-06-22T08:55:45;11.60;;;10.30;;
71265;SDS011;59030;52.052;8.550;2023-06-22T08:58:13;11.48;;;10.13;;
71265;SDS011;59030;52.052;8.550;2023-06-22T09:00:40;11.10;;;10.00;;
71265;SDS011;59030;52.052;8.550;2023-06-22T09:03:07;13.70;;;10.13;;
71265;SDS011;59030;52.052;8.550;2023-06-22T09:05:34;12.23;;;10.93;;
71265;SDS011;59030;52.052;8.550;2023-06-22T09:08:02;13.48;;;11.12;;
71265;SDS011;59030;52.052;8.550;2023-06-22T09:10:29;12.00;;;10.60;;
71265;SDS011;59030;52.052;8.550;2023-06-22T09:12:57;11.87;;;9.87;;
71265;SDS011;59030;52.052;8.550;2023-06-22T09:15:24;12.67;;;10.03;;
71265;SDS011;59030;52.052;8.550;2023-06-22T09:17:52;11.40;;;9.60;;
71265;SDS011;59030;52.052;8.550;2023-06-22T09:20:20;11.15;;;9.95;;
71265;SDS011;59030;52.052;8.550;2023-06-22T09:22:47;10.35;;;9.25;;
71265;SDS011;59030;52.052;8.550;2023-06-22T09:25:15;9.58;;;8.58;;
71265;SDS011;59030;52.052;8.550;2023-06-22T09:27:42;10.08;;;9.08;;
71265;SDS011;59030;52.052;8.550;2023-06-22T09:30:12;9.73;;;8.73;;
71265;SDS011;59030;52.052;8.550;2023-06-22T09:32:42;9.80;;;8.80;;
71265;SDS011;59030;52.052;8.550;2023-06-22T09:35:10;9.53;;;8.53;;
71265;SDS011;59030;52.052;8.550;2023-06-22T09:37:39;9.35;;;8.35;;
71265;SDS011;59030;52.052;8.550;2023-06-22T09:40:10;10.93;;;8.70;;
71265;SDS011;59030;52.052;8.550;2023-06-22T09:42:38;10.45;;;8.85;;
71265;SDS011;59030;52.052;8.550;2023-06-22T09:45:06;9.80;;;8.80;;
71265;SDS011;59030;52.052;8.550;2023-06-22T09:47:36;9.70;;;8.70;;
71265;SDS011;59030;52.052;8.550;2023-06-22T09:50:04;13.48;;;9.18;;
71265;SDS011;59030;52.052;8.550;2023-06-22T09:52:31;9.28;;;8.15;;
71265;SDS011;59030;52.052;8.550;2023-06-22T09:54:59;9.70;;;8.70;;
71265;SDS011;59030;52.052;8.550;2023-06-22T09:57:26;9.03;;;8.13;;
71265;SDS011;59030;52.052;8.550;2023-06-22T09:59:53;8.43;;;7.53;;
71265;SDS011;59030;52.052;8.550;2023-06-22T10:02:21;8.60;;;7.70;;
71265;SDS011;59030;52.052;8.550;2023-06-22T10:04:48;9.17;;;8.13;;
71265;SDS011;59030;52.052;8.550;2023-06-22T10:07:15;8.93;;;8.00;;
71265;SDS011;59030;52.052;8.550;2023-06-22T10:09:43;8.03;;;7.23;;
71265;SDS011;59030;52.052;8.550;2023-06-22T10:12:10;8.83;;;7.92;;
71265;SDS011;59030;52.052;8.550;2023-06-22T10:14:37;8.43;;;7.63;;
71265;SDS011;59030;52.052;8.550;2023-06-22T10:17:05;10.10;;;9.10;;
71265;SDS011;59030;52.052;8.550;2023-06-22T10:19:33;10.27;;;8.40;;
71265;SDS011;59030;52.052;8.550;2023-06-22T10:22:04;9.03;;;8.13;;
71265;SDS011;59030;52.052;8.550;2023-06-22T10:24:31;11.08;;;8.83;;
71265;SDS011;59030;52.052;8.550;2023-06-22T10:26:58;9.35;;;8.35;;
71265;SDS011;59030;52.052;8.550;2023-06-22T10:29:26;11.33;;;8.73;;
71265;SDS011;59030;52.052;8.550;2023-06-22T10:31:53;9.78;;;8.78;;
71265;SDS011;59030;52.052;8.550;2023-06-22T10:34:20;11.80;;;9.70;;
71265;SDS011;59030;52.052;8.550;2023-06-22T10:36:47;10.10;;;8.95;;
71265;SDS011;59030;52.052;8.550;2023-06-22T10:39:15;10.77;;;8.53;;
71265;SDS011;59030;52.052;8.550;2023-06-22T10:41:42;9.38;;;8.08;;
71265;SDS011;59030;52.052;8.550;2023-06-22T10:44:09;9.05;;;7.80;;
71265;SDS011;59030;52.052;8.550;2023-06-22T10:46:38;9.55;;;8.55;;
71265;SDS011;59030;52.052;8.550;2023-06-22T10:49:05;12.03;;;8.28;;
71265;SDS011;59030;52.052;8.550;2023-06-22T10:51:32;8.55;;;7.60;;
71265;SDS011;59030;52.052;8.550;2023-06-22T10:54:00;9.58;;;8.58;;
71265;SDS011;59030;52.052;8.550;2023-06-22T10:56:27;9.25;;;8.33;;
71265;SDS011;59030;52.052;8.550;2023-06-22T10:58:54;9.38;;;7.40;;
71265;SDS011;59030;52.052;8.550;2023-06-22T11:01:22;9.73;;;8.60;;
71265;SDS011;59030;52.052;8.550;2023-06-22T11:03:49;10.38;;;8.98;;
71265;SDS011;59030;52.052;8.550;2023-06-22T11:06:16;10.30;;;9.10;;
71265;SDS011;59030;52.052;8.550;2023-06-22T11:08:44;9.08;;;8.15;;
71265;SDS011;59030;52.052;8.550;2023-06-22T11:11:11;8.98;;;8.08;;
71265;SDS011;59030;52.052;8.550;2023-06-22T11:13:39;9.55;;;8.63;;
71265;SDS011;59030;52.052;8.550;2023-06-22T11:16:06;9.60;;;8.60;;
71265;SDS011;59030;52.052;8.550;2023-06-22T11:18:33;10.13;;;9.17;;
71265;SDS011;59030;52.052;8.550;2023-06-22T11:21:01;11.10;;;8.17;;
71265;SDS011;59030;52.052;8.550;2023-06-22T11:23:28;9.35;;;8.43;;
71265;SDS011;59030;52.052;8.550;2023-06-22T11:25:56;10.55;;;8.83;;
71265;SDS011;59030;52.052;8.550;2023-06-22T11:28:23;9.10;;;7.95;;
71265;SDS011;59030;52.052;8.550;2023-06-22T11:30:51;8.60;;;7.78;;
71265;SDS011;59030;52.052;8.550;2023-06-22T11:33:18;8.25;;;7.45;;
71265;SDS011;59030;52.052;8.550;2023-06-22T11:35:48;8.95;;;8.05;;
71265;SDS011;59030;52.052;8.550;2023-06-22T11:38:15;8.43;;;7.53;;
71265;SDS011;59030;52.052;8.550;2023-06-22T11:40:43;8.55;;;7.55;;
71265;SDS011;59030;52.052;8.550;2023-06-22T11:43:10;9.00;;;8.05;;
71265;SDS011;59030;52.052;8.550;2023-06-22T11:45:38;9.05;;;8.15;;
71265;SDS011;59030;52.052;8.550;2023-06-22T11:48:05;9.08;;;7.62;;
71265;SDS011;59030;52.052;8.550;2023-06-22T11:50:33;9.45;;;8.45;;
71265;SDS011;59030;52.052;8.550;2023-06-22T11:53:02;9.18;;;7.60;;
71265;SDS011;59030;52.052;8.550;2023-06-22T11:55:29;8.55;;;7.42;;
71265;SDS011;59030;52.052;8.550;2023-06-22T11:57:57;8.60;;;7.70;;
71265;SDS011;59030;52.052;8.550;2023-06-22T12:00:26;8.15;;;7.35;;
71265;SDS011;59030;52.052;8.550;2023-06-22T12:02:53;8.28;;;7.30;;
71265;SDS011;59030;52.052;8.550;2023-06-22T12:05:21;7.65;;;6.92;;
71265;SDS011;59030;52.052;8.550;2023-06-22T12:07:50;7.33;;;6.63;;
71265;SDS011;59030;52.052;8.550;2023-06-22T12:10:17;7.45;;;6.75;;
71265;SDS011;59030;52.052;8.550;2023-06-22T12:12:44;7.85;;;7.08;;
71265;SDS011;59030;52.052;8.550;2023-06-22T12:15:12;8.08;;;7.22;;
71265;SDS011;59030;52.052;8.550;2023-06-22T12:17:39;7.90;;;7.10;;
71265;SDS011;59030;52.052;8.550;2023-06-22T12:20:07;8.23;;;7.42;;
71265;SDS011;59030;52.052;8.550;2023-06-22T12:22:35;7.90;;;7.10;;
71265;SDS011;59030;52.052;8.550;2023-06-22T12:25:04;8.08;;;6.97;;
71265;SDS011;59030;52.052;8.550;2023-06-22T12:27:31;7.23;;;6.53;;
71265;SDS011;59030;52.052;8.550;2023-06-22T12:29:59;7.50;;;6.80;;
71265;SDS011;59030;52.052;8.550;2023-06-22T12:32:26;8.20;;;7.40;;
71265;SDS011;59030;52.052;8.550;2023-06-22T12:34:53;9.05;;;8.15;;
71265;SDS011;59030;52.052;8.550;2023-06-22T12:37:21;8.85;;;7.85;;
71265;SDS011;59030;52.052;8.550;2023-06-22T12:39:48;10.25;;;9.15;;
71265;SDS011;59030;52.052;8.550;2023-06-22T12:42:16;9.85;;;8.85;;
71265;SDS011;59030;52.052;8.550;2023-06-22T12:44:43;9.30;;;8.38;;
71265;SDS011;59030;52.052;8.550;2023-06-22T12:47:11;10.37;;;9.37;;
71265;SDS011;59030;52.052;8.550;2023-06-22T12:49:39;11.23;;;10.03;;
71265;SDS011;59030;52.052;8.550;2023-06-22T12:52:09;12.07;;;10.67;;
71265;SDS011;59030;52.052;8.550;2023-06-22T12:54:37;12.03;;;10.70;;
71265;SDS011;59030;52.052;8.550;2023-06-22T12:57:04;12.60;;;11.18;;
71265;SDS011;59030;52.052;8.550;2023-06-22T12:59:32;13.30;;;11.35;;
71265;SDS011;59030;52.052;8.550;2023-06-22T13:01:59;12.60;;;11.30;;
71265;SDS011;59030;52.052;8.550;2023-06-22T13:04:26;13.10;;;11.40;;
71265;SDS011;59030;52.052;8.550;2023-06-22T13:06:54;13.17;;;11.77;;
71265;SDS011;59030;52.052;8.550;2023-06-22T13:09:21;13.40;;;12.00;;
71265;SDS011;59030;52.052;8.550;2023-06-22T13:11:48;13.10;;;11.80;;
71265;SDS011;59030;52.052;8.550;2023-06-22T13:14:16;13.85;;;12.35;;
71265;SDS011;59030;52.052;8.550;2023-06-22T13:16:43;14.67;;;12.73;;
71265;SDS011;59030;52.052;8.550;2023-06-22T13:19:10;15.72;;;12.70;;
71265;SDS011;59030;52.052;8.550;2023-06-22T13:21:38;13.80;;;12.30;;
71265;SDS011;59030;52.052;8.550;2023-06-22T13:24:06;15.43;;;13.80;;
71265;SDS011;59030;52.052;8.550;2023-06-22T13:26:33;16.13;;;13.97;;
71265;SDS011;59030;52.052;8.550;2023-06-22T13:29:00;16.37;;;13.97;;
71265;SDS011;59030;52.052;8.550;2023-06-22T13:31:28;17.93;;;14.93;;
71265;SDS011;59030;52.052;8.550;2023-06-22T13:33:55;16.50;;;14.80;;
71265;SDS011;59030;52.052;8.550;2023-06-22T13:36:22;18.90;;;15.13;;
71265;SDS011;59030;52.052;8.550;2023-06-22T13:38:49;17.77;;;15.53;;
71265;SDS011;59030;52.052;8.550;2023-06-22T13:41:17;20.43;;;16.00;;
71265;SDS011;59030;52.052;8.550;2023-06-22T13:43:44;18.47;;;15.73;;
71265;SDS011;59030;52.052;8.550;2023-06-22T13:46:11;17.67;;;15.27;;
71265;SDS011;59030;52.052;8.550;2023-06-22T13:48:39;21.47;;;16.77;;
71265;SDS011;59030;52.052;8.550;2023-06-22T13:51:06;19.10;;;16.23;;
71265;SDS011;59030;52.052;8.550;2023-06-22T13:53:33;19.83;;;16.27;;
71265;SDS011;59030;52.052;8.550;2023-06-22T13:56:00;20.53;;;16.53;;
71265;SDS011;59030;52.052;8.550;2023-06-22T13:58:28;22.67;;;16.57;;
71265;SDS011;59030;52.052;8.550;2023-06-22T14:00:55;19.53;;;16.50;;
71265;SDS011;59030;52.052;8.550;2023-06-22T14:03:22;20.80;;;16.80;;
71265;SDS011;59030;52.052;8.550;2023-06-22T14:05:49;27.70;;;17.60;;
71265;SDS011;59030;52.052;8.550;2023-06-22T14:08:18;21.67;;;17.17;;
71265;SDS011;59030;52.052;8.550;2023-06-22T14:10:47;22.33;;;17.70;;
71265;SDS011;59030;52.052;8.550;2023-06-22T14:13:14;23.47;;;18.63;;
71265;SDS011;59030;52.052;8.550;2023-06-22T14:15:41;23.93;;;19.20;;
71265;SDS011;59030;52.052;8.550;2023-06-22T14:18:09;22.60;;;19.03;;
71265;SDS011;59030;52.052;8.550;2023-06-22T14:20:37;22.97;;;18.37;;
71265;SDS011;59030;52.052;8.550;2023-06-22T14:23:06;20.73;;;17.30;;
71265;SDS011;59030;52.052;8.550;2023-06-22T14:25:33;18.23;;;15.67;;
71265;SDS011;59030;52.052;8.550;2023-06-22T14:28:00;18.13;;;15.13;;
71265;SDS011;59030;52.052;8.550;2023-06-22T14:30:28;18.20;;;15.20;;
71265;SDS011;59030;52.052;8.550;2023-06-22T14:32:55;18.67;;;15.23;;
71265;SDS011;59030;52.052;8.550;2023-06-22T14:35:23;22.07;;;14.90;;